createdAt,value
2023-04-21T00:03:21.670Z,1.97
2023-04-21T00:08:14.126Z,1.90
2023-04-21T00:13:05.815Z,2.00
2023-04-21T00:17:59.001Z,2.20
2023-04-21T00:22:52.504Z,2.10
2023-04-21T00:27:44.191Z,2.00
2023-04-21T00:32:36.004Z,2.17
2023-04-21T00:37:27.737Z,2.23
2023-04-21T00:42:19.396Z,2.30
2023-04-21T00:47:11.390Z,2.43
2023-04-21T00:52:06.188Z,2.13
2023-04-21T00:56:58.573Z,2.50
2023-04-21T01:01:52.742Z,2.63
2023-04-21T01:06:44.943Z,2.53
2023-04-21T01:11:36.649Z,2.30
2023-04-21T01:16:29.452Z,2.50
2023-04-21T01:21:21.955Z,2.80
2023-04-21T01:26:13.772Z,2.20
2023-04-21T01:31:06.439Z,2.70
2023-04-21T01:35:58.586Z,2.07
2023-04-21T01:40:54.293Z,2.50
2023-04-21T01:45:49.953Z,2.60
2023-04-21T01:50:41.729Z,2.53
2023-04-21T01:55:33.735Z,2.20
2023-04-21T02:00:26.638Z,2.43
2023-04-21T02:05:18.597Z,2.50
2023-04-21T02:10:11.773Z,2.43
2023-04-21T02:15:04.795Z,2.30
2023-04-21T02:19:56.518Z,2.07
2023-04-21T02:24:48.718Z,2.23
2023-04-21T02:29:40.620Z,2.40
2023-04-21T02:34:32.429Z,2.63
2023-04-21T02:39:24.089Z,2.47
2023-04-21T02:44:15.962Z,2.53
2023-04-21T02:49:08.228Z,2.83
2023-04-21T02:54:00.038Z,2.80
2023-04-21T02:58:51.707Z,2.83
2023-04-21T03:08:52.026Z,2.50
2023-04-21T03:13:43.704Z,2.87
2023-04-21T03:18:36.213Z,2.50
2023-04-21T03:23:31.072Z,3.40
2023-04-21T03:28:22.777Z,3.33
2023-04-21T03:33:14.486Z,2.80
2023-04-21T03:38:06.246Z,3.73
2023-04-21T03:42:57.965Z,3.40
2023-04-21T03:47:54.641Z,4.17
2023-04-21T03:52:46.381Z,3.90
2023-04-21T03:57:41.648Z,3.60
2023-04-21T04:02:33.892Z,4.00
2023-04-21T04:07:26.079Z,4.23
2023-04-21T04:12:17.745Z,4.53
2023-04-21T04:17:09.423Z,4.60
2023-04-21T04:22:01.510Z,5.43
2023-04-21T04:26:54.773Z,5.77
2023-04-21T04:31:50.501Z,5.70
2023-04-21T04:36:44.200Z,5.57
2023-04-21T04:41:40.127Z,5.03
2023-04-21T04:46:32.435Z,5.93
2023-04-21T04:51:24.230Z,5.10
2023-04-21T04:56:15.960Z,5.93
2023-04-21T05:01:17.630Z,5.60
2023-04-21T05:06:10.041Z,5.70
2023-04-21T05:11:02.468Z,5.87
2023-04-21T05:15:58.637Z,6.80
2023-04-21T05:20:50.344Z,6.00
2023-04-21T05:25:41.999Z,5.87
2023-04-21T05:30:33.776Z,6.00
2023-04-21T05:35:26.864Z,5.40
2023-04-21T05:40:19.470Z,5.90
2023-04-21T05:45:11.653Z,6.33
2023-04-21T05:50:03.464Z,5.90
2023-04-21T06:00:00.854Z,6.77
2023-04-21T06:04:53.482Z,6.37
2023-04-21T06:09:50.046Z,6.57
2023-04-21T06:19:53.417Z,5.73
2023-04-21T06:29:57.906Z,4.67
2023-04-21T06:34:59.753Z,3.50
2023-04-21T06:39:55.629Z,3.70
2023-04-21T06:44:48.826Z,3.63
2023-04-21T06:49:42.167Z,3.30
2023-04-21T06:54:34.018Z,3.70
2023-04-21T06:59:26.922Z,2.53
2023-04-21T07:04:19.262Z,2.70
2023-04-21T07:09:11.124Z,3.60
2023-04-21T07:14:02.918Z,2.70
2023-04-21T07:18:56.799Z,2.20
2023-04-21T07:23:49.133Z,2.40
2023-04-21T07:28:42.260Z,2.40
2023-04-21T07:33:33.955Z,3.13
2023-04-21T07:38:28.618Z,2.87
2023-04-21T07:43:20.439Z,3.43
2023-04-21T07:48:12.148Z,2.40
2023-04-21T07:53:04.161Z,2.40
2023-04-21T07:57:56.612Z,2.13
2023-04-21T08:07:56.584Z,2.00
2023-04-21T08:17:56.265Z,2.50
2023-04-21T08:22:48.538Z,3.77
2023-04-21T08:27:41.493Z,3.47
2023-04-21T08:32:33.601Z,3.17
2023-04-21T08:37:26.045Z,3.10
2023-04-21T08:42:19.055Z,3.13
2023-04-21T08:47:13.130Z,3.30
2023-04-21T08:52:05.824Z,3.00
2023-04-21T09:07:33.863Z,2.60
2023-04-21T09:12:26.796Z,3.78
2023-04-21T09:17:22.406Z,3.10
2023-04-21T09:27:23.527Z,3.28
2023-04-21T09:32:20.495Z,3.13
2023-04-21T09:37:18.795Z,2.97
2023-04-21T09:47:19.031Z,2.80
2023-04-21T09:52:19.002Z,2.60
2023-04-21T09:57:23.634Z,2.80
2023-04-21T10:02:21.933Z,2.88
2023-04-21T10:07:15.456Z,2.60
2023-04-21T10:17:18.247Z,2.70
2023-04-21T10:22:11.863Z,2.80
2023-04-21T10:27:04.838Z,2.78
2023-04-21T10:31:58.818Z,2.75
2023-04-21T10:37:12.609Z,2.90
2023-04-21T10:42:14.444Z,2.28
2023-04-21T10:47:10.233Z,2.47
2023-04-21T10:57:23.835Z,2.10
2023-04-21T11:02:18.308Z,2.42
2023-04-21T11:07:17.119Z,2.60
2023-04-21T11:12:15.949Z,2.30
2023-04-21T11:17:19.886Z,2.53
2023-04-21T11:22:13.214Z,2.33
2023-04-21T11:27:09.935Z,1.90
2023-04-21T11:32:03.063Z,2.20
2023-04-21T11:36:55.699Z,1.70
2023-04-21T11:41:50.721Z,2.17
2023-04-21T11:46:46.556Z,1.95
2023-04-21T11:51:45.077Z,1.58
2023-04-21T11:56:43.442Z,1.45
2023-04-21T12:01:43.547Z,1.30
2023-04-21T12:06:37.883Z,1.52
2023-04-21T12:11:31.600Z,1.50
2023-04-21T12:16:29.356Z,1.20
2023-04-21T12:21:21.393Z,1.50
2023-04-21T12:26:13.874Z,1.50
2023-04-21T12:31:06.708Z,1.30
2023-04-21T12:35:59.733Z,1.50
2023-04-21T12:40:51.636Z,1.33
2023-04-21T12:45:43.395Z,1.40
2023-04-21T12:55:46.954Z,1.20
2023-04-21T13:00:44.848Z,1.10
2023-04-21T13:05:37.215Z,0.90
2023-04-21T13:10:28.916Z,0.85
2023-04-21T13:15:20.578Z,0.70
2023-04-21T13:20:12.370Z,0.55
2023-04-21T13:25:04.824Z,0.60
2023-04-21T13:29:57.691Z,0.88
2023-04-21T13:34:49.398Z,0.60
2023-04-21T13:39:41.146Z,0.55
2023-04-21T13:44:33.123Z,0.65
2023-04-21T13:49:25.127Z,0.63
2023-04-21T13:54:16.837Z,0.60
2023-04-21T14:04:19.211Z,1.70
2023-04-21T14:09:11.919Z,2.13
2023-04-21T14:14:09.103Z,2.33
2023-04-21T14:19:02.272Z,2.40
2023-04-21T14:23:53.960Z,2.40
2023-04-21T14:28:45.741Z,2.28
2023-04-21T14:33:37.593Z,1.80
2023-04-21T14:38:30.703Z,1.85
2023-04-21T14:43:22.932Z,2.30
2023-04-21T14:48:15.894Z,2.17
2023-04-21T14:58:15.489Z,2.38
2023-04-21T15:03:07.587Z,2.22
2023-04-21T15:08:00.137Z,1.98
2023-04-21T15:12:51.953Z,2.08
2023-04-21T15:17:43.700Z,2.00
2023-04-21T15:22:36.051Z,2.00
2023-04-21T15:27:27.743Z,1.60
2023-04-21T15:32:19.586Z,1.85
2023-04-21T15:37:11.797Z,1.77
2023-04-21T15:42:04.674Z,1.58
2023-04-21T15:46:56.510Z,1.90
2023-04-21T15:51:48.401Z,2.03
2023-04-21T16:01:46.050Z,1.70
2023-04-21T16:06:45.265Z,1.90
2023-04-21T16:11:37.443Z,1.85
2023-04-21T16:16:29.508Z,1.75
2023-04-21T16:21:21.373Z,1.70
2023-04-21T16:26:13.136Z,1.70
2023-04-21T16:31:08.569Z,1.55
2023-04-21T16:36:00.519Z,1.42
2023-04-21T16:40:52.587Z,1.63
2023-04-21T16:45:44.908Z,1.70
2023-04-21T16:50:42.034Z,1.38
2023-04-21T16:55:38.170Z,1.60
2023-04-21T17:00:30.547Z,1.48
2023-04-21T17:05:25.841Z,1.20
2023-04-21T17:10:18.237Z,1.85
2023-04-21T17:15:11.871Z,1.60
2023-04-21T17:20:03.844Z,1.38
2023-04-21T17:24:57.685Z,1.30
2023-04-21T17:29:49.989Z,1.40
2023-04-21T17:34:42.581Z,1.67
2023-04-21T17:39:36.364Z,1.42
2023-04-21T17:44:28.205Z,1.60
2023-04-21T17:49:19.980Z,1.45
2023-04-21T17:54:12.500Z,1.58
2023-04-21T17:59:04.239Z,1.90
2023-04-21T18:03:59.304Z,1.40
2023-04-21T18:08:52.865Z,1.50
2023-04-21T18:13:45.013Z,2.08
2023-04-21T18:18:36.853Z,1.88
2023-04-21T18:23:29.133Z,1.70
2023-04-21T18:28:20.905Z,1.73
2023-04-21T18:33:12.892Z,1.67
2023-04-21T18:38:08.247Z,1.63
2023-04-21T18:43:00.676Z,1.95
2023-04-21T18:47:52.804Z,2.10
2023-04-21T18:52:45.800Z,2.75
2023-04-21T18:57:37.489Z,2.58
2023-04-21T19:02:29.981Z,2.85
2023-04-21T19:07:22.321Z,2.92
2023-04-21T19:12:14.516Z,7.43
2023-04-21T19:17:07.314Z,6.95
2023-04-21T19:21:59.943Z,8.95
2023-04-21T19:26:51.792Z,4.03
2023-04-21T19:31:43.528Z,2.83
2023-04-21T19:36:35.403Z,3.33
2023-04-21T19:41:27.121Z,3.27
2023-04-21T19:46:18.926Z,2.33
2023-04-21T19:51:10.652Z,2.60
2023-04-21T19:56:02.342Z,2.60
2023-04-21T20:00:54.050Z,2.33
2023-04-21T20:05:45.980Z,2.60
2023-04-21T20:10:43.599Z,2.60
2023-04-21T20:15:35.341Z,2.60
2023-04-21T20:20:30.714Z,2.73
2023-04-21T20:25:22.532Z,2.70
2023-04-21T20:30:14.406Z,2.87
2023-04-21T20:35:08.527Z,3.13
2023-04-21T20:40:01.837Z,2.97
2023-04-21T20:44:53.633Z,3.00
2023-04-21T20:49:47.130Z,2.70
2023-04-21T20:54:38.928Z,2.90
2023-04-21T20:59:31.412Z,2.93
2023-04-21T21:04:23.328Z,2.80
2023-04-21T21:09:16.958Z,3.30
2023-04-21T21:14:08.615Z,3.17
2023-04-21T21:19:00.422Z,3.30
2023-04-21T21:23:52.473Z,2.80
2023-04-21T21:28:44.335Z,3.50
2023-04-21T21:33:36.200Z,3.17
2023-04-21T21:38:28.154Z,3.10
2023-04-21T21:43:19.825Z,3.30
2023-04-21T21:48:11.608Z,3.87
2023-04-21T21:53:03.489Z,3.93
2023-04-21T21:57:55.689Z,3.90
2023-04-21T22:02:47.671Z,3.60
2023-04-21T22:07:47.380Z,3.43
2023-04-21T22:12:39.307Z,4.20
2023-04-21T22:17:31.145Z,4.03
2023-04-21T22:22:23.290Z,3.90
2023-04-21T22:27:16.956Z,3.90
2023-04-21T22:32:10.072Z,3.93
2023-04-21T22:37:02.281Z,4.00
2023-04-21T22:41:54.116Z,4.50
2023-04-21T22:46:46.960Z,4.10
2023-04-21T22:51:38.757Z,3.57
2023-04-21T22:56:31.668Z,4.20
2023-04-21T23:01:23.722Z,4.10
2023-04-21T23:06:15.610Z,3.90
2023-04-21T23:11:07.754Z,4.13
2023-04-21T23:15:59.785Z,4.13
2023-04-21T23:20:52.491Z,4.30
2023-04-21T23:25:44.364Z,4.20
2023-04-21T23:30:36.247Z,4.50
2023-04-21T23:35:28.067Z,4.30
2023-04-21T23:40:21.175Z,4.30
2023-04-21T23:45:13.108Z,4.27
2023-04-21T23:50:05.616Z,4.20
2023-04-21T23:54:57.436Z,4.23
2023-04-21T23:59:49.175Z,4.40
